KAOH

Lima Allen County Airport

Lima, Ohio, USA
METAR KAOH 152153Z AUTO 23008KT 10SM FEW070 24/21 A3002 RMK AO2 SLP161 T02440206
Observed Flight Rules
Aug-15 @ 21:53 UTC (34 minutes ago) Visual Flight Rules
Wind Visibility Clouds
230° at 8 knots 10 miles
  • Few at 7,000' AGL
Temperatures Readings
Current 24°C / 75°F
Dewpoint 21°C / 70°F
Humidity 83%
Altimeter 30.02" Hg
Pressure 1016.1 hPa
Elevation 296
METAR KAOH 152153Z AUTO 23008KT 10SM FEW070 24/21 A3002 RMK AO2 SLP161 T02440206
Observed Flight Rules
Aug-15 @ 21:53 UTC
(34 minutes ago)
VFR
Wind Visibility
230° at 8 knots 10 miles
Clouds
  • Few at 7,000' AGL
Temperature Dewpoint
24°C / 75°F 21°C / 70°F
Humidity Altimeter Pressure
83% 30.02" Hg 1016.1 hPa